createdAt,value
2023-05-20T00:00:04.750Z,13.29
2023-05-20T00:01:04.771Z,13.23
2023-05-20T00:02:04.712Z,13.30
2023-05-20T00:03:04.844Z,13.26
2023-05-20T00:04:04.858Z,13.28
2023-05-20T00:05:04.736Z,13.19
2023-05-20T00:06:04.691Z,13.19
2023-05-20T00:07:04.681Z,13.10
2023-05-20T00:08:04.663Z,13.17
2023-05-20T00:09:04.698Z,13.15
2023-05-20T00:10:04.648Z,13.15
2023-05-20T00:11:04.647Z,13.07
2023-05-20T00:12:04.678Z,13.23
2023-05-20T00:13:04.606Z,13.10
2023-05-20T00:14:04.589Z,13.05
2023-05-20T00:15:04.574Z,13.19
2023-05-20T00:16:04.587Z,13.08
2023-05-20T00:17:04.641Z,12.96
2023-05-20T00:18:04.667Z,13.04
2023-05-20T00:19:04.598Z,13.11
2023-05-20T00:20:04.544Z,12.92
2023-05-20T00:21:04.515Z,13.03
2023-05-20T00:22:04.515Z,12.97
2023-05-20T00:23:04.552Z,13.00
2023-05-20T00:24:04.515Z,13.08
2023-05-20T00:25:04.466Z,12.96
2023-05-20T00:26:04.499Z,13.05
2023-05-20T00:27:04.451Z,12.97
2023-05-20T00:28:04.495Z,13.03
2023-05-20T00:29:04.535Z,13.03
2023-05-20T00:30:04.415Z,13.00
2023-05-20T00:31:04.408Z,13.05
2023-05-20T00:32:04.444Z,13.00
2023-05-20T00:33:04.485Z,12.89
2023-05-20T00:34:04.391Z,12.95
2023-05-20T00:35:04.445Z,12.85
2023-05-20T00:36:04.368Z,12.87
2023-05-20T00:37:04.358Z,12.90
2023-05-20T00:38:04.338Z,12.87
2023-05-20T00:39:04.328Z,12.93
2023-05-20T00:40:04.327Z,12.95
2023-05-20T00:41:04.355Z,12.96
2023-05-20T00:42:04.283Z,12.87
2023-05-20T00:43:04.278Z,12.90
2023-05-20T00:44:04.261Z,12.89
2023-05-20T00:45:04.258Z,12.86
2023-05-20T00:46:04.322Z,12.86
2023-05-20T00:47:04.300Z,12.83
2023-05-20T00:48:04.352Z,12.83
2023-05-20T00:49:04.227Z,12.78
2023-05-20T00:50:04.209Z,12.77
2023-05-20T00:51:04.202Z,12.77
2023-05-20T00:52:04.228Z,12.77
2023-05-20T00:53:04.212Z,12.79
2023-05-20T00:54:04.165Z,12.77
2023-05-20T00:55:04.142Z,12.78
2023-05-20T00:56:04.162Z,12.74
2023-05-20T00:57:04.142Z,12.79
2023-05-20T00:58:04.175Z,12.75
2023-05-20T00:59:04.178Z,12.78
2023-05-20T01:00:04.131Z,12.75
2023-05-20T01:01:04.097Z,12.82
2023-05-20T01:02:04.110Z,12.78
2023-05-20T01:03:04.185Z,12.75
2023-05-20T01:04:04.057Z,12.74
2023-05-20T01:05:04.046Z,12.70
2023-05-20T01:06:04.045Z,12.70
2023-05-20T01:07:04.033Z,12.71
2023-05-20T01:08:04.004Z,12.74
2023-05-20T01:09:04.005Z,12.68
2023-05-20T01:10:03.996Z,12.71
2023-05-20T01:11:03.969Z,12.72
2023-05-20T01:12:03.981Z,12.72
2023-05-20T01:13:03.943Z,12.70
2023-05-20T01:14:03.934Z,12.71
2023-05-20T01:15:03.969Z,12.74
2023-05-20T01:16:03.979Z,12.71
2023-05-20T01:17:03.894Z,12.62
2023-05-20T01:18:03.915Z,12.67
2023-05-20T01:19:03.920Z,12.70
2023-05-20T01:20:03.868Z,12.68
2023-05-20T01:21:03.874Z,12.70
2023-05-20T01:22:03.851Z,12.71
2023-05-20T01:23:03.871Z,12.64
2023-05-20T01:24:03.831Z,12.57
2023-05-20T01:25:03.810Z,12.59
2023-05-20T01:26:03.831Z,12.52
2023-05-20T01:27:03.817Z,12.53
2023-05-20T01:28:03.782Z,12.54
2023-05-20T01:29:03.860Z,12.47
2023-05-20T01:30:03.777Z,12.47
2023-05-20T01:31:03.790Z,12.59
2023-05-20T01:32:03.731Z,12.53
2023-05-20T01:33:03.774Z,12.47
2023-05-20T01:34:03.758Z,12.39
2023-05-20T01:35:03.704Z,12.42
2023-05-20T01:36:03.691Z,12.38
2023-05-20T01:37:03.825Z,12.47
2023-05-20T01:38:03.679Z,12.56
2023-05-20T01:39:03.796Z,12.38
2023-05-20T01:40:03.709Z,12.39
2023-05-20T01:41:03.638Z,12.39
2023-05-20T01:42:03.638Z,12.35
2023-05-20T01:43:03.691Z,12.28
2023-05-20T01:44:03.632Z,12.46
2023-05-20T01:45:03.599Z,12.28
2023-05-20T01:46:03.707Z,12.24
2023-05-20T01:47:03.627Z,12.24
2023-05-20T01:48:03.624Z,12.29
2023-05-20T01:49:03.569Z,12.32
2023-05-20T01:50:03.539Z,12.24
2023-05-20T01:51:03.550Z,12.23
2023-05-20T01:52:03.624Z,12.28
2023-05-20T01:53:03.511Z,12.27
2023-05-20T01:54:03.497Z,12.23
2023-05-20T01:55:03.501Z,12.20
2023-05-20T01:56:03.495Z,12.19
2023-05-20T01:57:03.466Z,12.21
2023-05-20T01:58:03.535Z,12.21
2023-05-20T01:59:03.456Z,12.09
2023-05-20T02:00:03.454Z,12.13
2023-05-20T02:01:03.481Z,12.16
2023-05-20T02:02:03.448Z,12.14
2023-05-20T02:03:03.425Z,12.14
2023-05-20T02:04:03.463Z,12.07
2023-05-20T02:05:03.381Z,12.12
2023-05-20T02:06:03.412Z,12.09
2023-05-20T02:07:03.377Z,12.01
2023-05-20T02:08:03.340Z,12.07
2023-05-20T02:09:03.345Z,11.98
2023-05-20T02:10:03.438Z,11.94
2023-05-20T02:11:03.363Z,11.96
2023-05-20T02:12:03.302Z,11.99
2023-05-20T02:13:03.298Z,11.91
2023-05-20T02:14:03.283Z,11.98
2023-05-20T02:15:03.287Z,11.98
2023-05-20T02:16:03.444Z,11.88
2023-05-20T02:17:03.253Z,11.75
2023-05-20T02:18:03.308Z,11.85
2023-05-20T02:19:03.372Z,11.86
2023-05-20T02:20:03.220Z,11.75
2023-05-20T02:21:03.219Z,11.67
2023-05-20T02:22:03.257Z,11.80
2023-05-20T02:23:03.206Z,11.76
2023-05-20T02:24:03.181Z,11.67
2023-05-20T02:25:03.199Z,11.82
2023-05-20T02:26:03.202Z,11.90
2023-05-20T02:27:03.165Z,11.80
2023-05-20T02:28:03.157Z,11.75
2023-05-20T02:29:03.143Z,11.75
2023-05-20T02:30:03.124Z,11.58
2023-05-20T02:31:03.118Z,11.70
2023-05-20T02:32:03.110Z,11.69
2023-05-20T02:33:03.149Z,11.54
2023-05-20T02:34:03.101Z,11.58
2023-05-20T02:35:03.066Z,11.64
2023-05-20T02:36:03.061Z,11.54
2023-05-20T02:37:03.060Z,11.61
2023-05-20T02:38:03.039Z,11.55
2023-05-20T02:39:03.030Z,11.49
2023-05-20T02:40:03.017Z,11.52
2023-05-20T02:41:02.994Z,11.54
2023-05-20T02:42:03.011Z,11.49
2023-05-20T02:43:02.987Z,11.52
2023-05-20T02:44:02.984Z,11.46
2023-05-20T02:45:03.018Z,11.46
2023-05-20T02:46:03.000Z,11.49
2023-05-20T02:47:02.941Z,11.44
2023-05-20T02:48:02.990Z,11.49
2023-05-20T02:49:02.931Z,11.42
2023-05-20T02:50:02.894Z,11.46
2023-05-20T02:51:02.972Z,11.42
2023-05-20T02:52:02.872Z,11.42
2023-05-20T02:53:02.923Z,11.42
2023-05-20T02:54:02.854Z,11.44
2023-05-20T02:55:02.868Z,11.47
2023-05-20T02:56:02.868Z,11.55
2023-05-20T02:57:02.871Z,11.51
2023-05-20T02:58:02.818Z,11.43
2023-05-20T02:59:02.851Z,11.42
2023-05-20T03:00:02.810Z,11.43
2023-05-20T03:01:02.847Z,11.39
2023-05-20T03:02:02.768Z,11.42
2023-05-20T03:03:02.894Z,11.44
2023-05-20T03:04:02.778Z,11.43
2023-05-20T03:05:02.798Z,11.43
2023-05-20T03:06:02.736Z,11.39
2023-05-20T03:07:02.744Z,11.39
2023-05-20T03:08:02.704Z,11.40
2023-05-20T03:09:02.704Z,11.40
2023-05-20T03:10:02.699Z,11.36
2023-05-20T03:11:03.766Z,11.37
2023-05-20T03:12:02.661Z,11.33
2023-05-20T03:13:02.655Z,11.40
2023-05-20T03:14:02.642Z,11.35
2023-05-20T03:15:02.679Z,11.43
2023-05-20T03:16:02.669Z,11.42
2023-05-20T03:17:02.651Z,11.32
2023-05-20T03:18:02.667Z,11.40
2023-05-20T03:19:02.696Z,11.40
2023-05-20T03:20:02.574Z,11.29
2023-05-20T03:21:02.578Z,11.42
2023-05-20T03:22:02.578Z,11.25
2023-05-20T03:23:02.601Z,11.35
2023-05-20T03:24:02.535Z,11.40
2023-05-20T03:25:02.527Z,11.25
2023-05-20T03:26:02.523Z,11.40
2023-05-20T03:27:02.500Z,11.29
2023-05-20T03:28:02.509Z,11.32
2023-05-20T03:29:02.505Z,11.18
2023-05-20T03:30:02.468Z,11.25
2023-05-20T03:31:02.531Z,11.27
2023-05-20T03:32:02.433Z,11.18
2023-05-20T03:33:02.690Z,11.22
2023-05-20T03:34:02.453Z,11.27
2023-05-20T03:35:02.444Z,11.25
2023-05-20T03:36:02.406Z,11.19
2023-05-20T03:37:02.386Z,11.11
2023-05-20T03:38:02.377Z,11.09
2023-05-20T03:39:02.365Z,11.18
2023-05-20T03:40:02.367Z,11.11
2023-05-20T03:41:02.428Z,11.10
2023-05-20T03:42:02.333Z,11.07
2023-05-20T03:43:02.323Z,11.11
2023-05-20T03:44:02.351Z,11.09
2023-05-20T03:45:02.316Z,11.07
2023-05-20T03:46:02.280Z,11.15
2023-05-20T03:47:02.388Z,11.04
2023-05-20T03:48:02.336Z,11.04
2023-05-20T03:49:02.296Z,11.06
2023-05-20T03:50:02.256Z,11.04
2023-05-20T03:51:02.227Z,11.10
2023-05-20T03:52:02.222Z,11.11
2023-05-20T03:53:02.255Z,11.06
2023-05-20T03:54:02.198Z,11.14
2023-05-20T03:55:02.207Z,11.14
2023-05-20T03:56:02.189Z,11.11
2023-05-20T03:57:02.174Z,11.09
2023-05-20T03:58:02.200Z,11.11
2023-05-20T03:59:02.143Z,11.15
2023-05-20T04:00:02.153Z,11.10
2023-05-20T04:01:02.149Z,11.10
2023-05-20T04:02:02.130Z,11.06
2023-05-20T04:03:02.225Z,11.10
2023-05-20T04:04:02.211Z,11.11
2023-05-20T04:05:02.102Z,11.18
2023-05-20T04:06:02.071Z,11.19
2023-05-20T04:07:02.057Z,11.14
2023-05-20T04:08:02.059Z,11.18
2023-05-20T04:09:02.032Z,11.21
2023-05-20T04:10:02.096Z,11.22
2023-05-20T04:11:02.051Z,11.24
2023-05-20T04:12:01.999Z,11.18
2023-05-20T04:13:01.992Z,11.17
2023-05-20T04:14:02.026Z,11.17
2023-05-20T04:15:02.013Z,11.33
2023-05-20T04:16:02.067Z,11.33
2023-05-20T04:17:02.004Z,11.27
2023-05-20T04:18:01.989Z,11.21
2023-05-20T04:19:01.986Z,11.24
2023-05-20T04:20:01.932Z,11.27
2023-05-20T04:21:01.952Z,11.25
2023-05-20T04:22:01.968Z,11.28
2023-05-20T04:23:01.881Z,11.35
2023-05-20T04:24:01.880Z,11.33
2023-05-20T04:25:01.883Z,11.29
2023-05-20T04:26:01.857Z,11.33
2023-05-20T04:27:01.841Z,11.25
2023-05-20T04:28:01.883Z,11.39
2023-05-20T04:29:01.819Z,11.33
2023-05-20T04:30:01.829Z,11.28
2023-05-20T04:31:01.800Z,11.29
2023-05-20T04:32:01.832Z,11.37
2023-05-20T04:33:01.796Z,11.35
2023-05-20T04:34:01.798Z,11.42
2023-05-20T04:35:01.768Z,11.35
2023-05-20T04:36:01.747Z,11.42
2023-05-20T04:37:01.738Z,11.37
2023-05-20T04:38:01.739Z,11.37
2023-05-20T04:39:01.712Z,11.39
2023-05-20T04:40:01.730Z,11.32
2023-05-20T04:41:01.705Z,11.42
2023-05-20T04:42:01.687Z,11.35
2023-05-20T04:43:01.670Z,11.43
2023-05-20T04:44:01.681Z,11.47
2023-05-20T04:45:01.668Z,11.51
2023-05-20T04:46:01.695Z,11.46
2023-05-20T04:47:01.623Z,11.49
2023-05-20T04:48:01.664Z,11.54
2023-05-20T04:49:01.643Z,11.55
2023-05-20T04:50:01.597Z,11.61
2023-05-20T04:51:01.602Z,11.51
2023-05-20T04:52:01.642Z,11.52
2023-05-20T04:53:01.576Z,11.64
2023-05-20T04:54:01.553Z,11.67
2023-05-20T04:55:01.545Z,11.65
2023-05-20T04:56:01.520Z,11.62
2023-05-20T04:57:01.531Z,11.69
2023-05-20T04:58:01.580Z,11.80
2023-05-20T04:59:01.492Z,11.78
2023-05-20T05:00:01.499Z,11.85
2023-05-20T05:01:01.637Z,11.75
2023-05-20T05:02:01.490Z,11.83
2023-05-20T05:03:01.544Z,11.86
2023-05-20T05:04:01.520Z,11.95
2023-05-20T05:05:01.542Z,11.99
2023-05-20T05:06:01.423Z,12.09
2023-05-20T05:07:01.488Z,12.07
2023-05-20T05:08:01.422Z,12.02
2023-05-20T05:09:01.388Z,12.10
2023-05-20T05:10:01.628Z,12.10
2023-05-20T05:11:01.399Z,12.14
2023-05-20T05:12:01.428Z,12.10
2023-05-20T05:13:01.346Z,12.23
2023-05-20T05:14:01.354Z,12.12
2023-05-20T05:15:01.330Z,12.27
2023-05-20T05:16:01.442Z,12.28
2023-05-20T05:17:01.314Z,12.19
2023-05-20T05:18:01.346Z,12.21
2023-05-20T05:19:01.315Z,12.28
2023-05-20T05:20:01.270Z,12.35
2023-05-20T05:21:01.276Z,12.31
2023-05-20T05:22:01.260Z,12.28
2023-05-20T05:23:01.255Z,12.39
2023-05-20T05:24:01.259Z,12.32
2023-05-20T05:25:01.243Z,12.46
2023-05-20T05:26:01.226Z,12.53
2023-05-20T05:27:01.204Z,12.42
2023-05-20T05:28:01.186Z,12.49
2023-05-20T05:29:01.212Z,12.39
2023-05-20T05:30:01.261Z,12.50
2023-05-20T05:31:01.173Z,12.45
2023-05-20T05:32:01.171Z,12.50
2023-05-20T05:33:01.332Z,12.54
2023-05-20T05:34:01.121Z,12.53
2023-05-20T05:35:01.116Z,12.59
2023-05-20T05:36:01.164Z,12.64
2023-05-20T05:37:01.087Z,12.67
2023-05-20T05:38:01.079Z,12.70
2023-05-20T05:39:01.084Z,12.71
2023-05-20T05:40:01.078Z,12.70
2023-05-20T05:41:01.051Z,12.68
2023-05-20T05:42:01.103Z,12.82
2023-05-20T05:43:01.035Z,12.79
2023-05-20T05:44:01.024Z,12.85
2023-05-20T05:45:01.024Z,12.83
2023-05-20T05:46:01.010Z,12.82
2023-05-20T05:47:01.016Z,12.75
2023-05-20T05:48:01.110Z,12.90
2023-05-20T05:49:00.967Z,12.79
2023-05-20T05:50:00.950Z,12.90
2023-05-20T05:51:00.941Z,13.01
2023-05-20T05:52:00.954Z,12.96
2023-05-20T05:53:00.913Z,12.97
2023-05-20T05:54:00.937Z,13.15
2023-05-20T05:55:00.942Z,13.01
2023-05-20T05:56:00.887Z,13.08
2023-05-20T05:57:00.941Z,13.04
2023-05-20T05:58:00.870Z,13.07
2023-05-20T05:59:00.851Z,13.10
2023-05-20T06:00:00.920Z,13.19
2023-05-20T06:01:00.880Z,13.15
2023-05-20T06:02:00.909Z,13.15
2023-05-20T06:03:00.959Z,13.17
2023-05-20T06:04:00.969Z,13.23
2023-05-20T06:05:00.802Z,13.33
2023-05-20T06:06:00.871Z,13.32
2023-05-20T06:07:00.761Z,13.46
2023-05-20T06:08:00.755Z,13.39
2023-05-20T06:09:00.741Z,13.55
2023-05-20T06:10:00.756Z,13.54
2023-05-20T06:11:00.733Z,13.60
2023-05-20T06:12:00.799Z,13.46
2023-05-20T06:13:00.704Z,13.44
2023-05-20T06:14:00.675Z,13.39
2023-05-20T06:15:00.699Z,13.49
2023-05-20T06:16:00.721Z,13.41
2023-05-20T06:17:00.698Z,13.48
2023-05-20T06:18:00.715Z,13.54
2023-05-20T06:19:03.445Z,13.54
2023-05-20T06:20:00.632Z,13.54
2023-05-20T06:21:00.619Z,13.49
2023-05-20T06:22:00.647Z,13.59
2023-05-20T06:23:00.738Z,13.54
2023-05-20T06:24:00.601Z,13.63
2023-05-20T06:25:00.626Z,13.69
2023-05-20T06:26:00.575Z,13.69
2023-05-20T06:27:00.566Z,13.78
2023-05-20T06:28:00.568Z,13.88
2023-05-20T06:29:00.548Z,13.81
2023-05-20T06:30:00.574Z,13.92
2023-05-20T06:31:00.506Z,14.06
2023-05-20T06:32:00.497Z,14.17
2023-05-20T06:33:00.554Z,14.27
2023-05-20T06:34:00.496Z,14.20
2023-05-20T06:35:00.469Z,14.18
2023-05-20T06:36:00.503Z,14.37
2023-05-20T06:37:00.436Z,14.29
2023-05-20T06:38:00.459Z,14.24
2023-05-20T06:39:00.452Z,14.35
2023-05-20T06:40:00.478Z,14.51
2023-05-20T06:41:00.428Z,14.51
2023-05-20T06:42:00.627Z,14.25
2023-05-20T06:43:00.394Z,14.20
2023-05-20T06:44:00.445Z,14.24
2023-05-20T06:45:00.419Z,14.22
2023-05-20T06:46:00.409Z,14.25
2023-05-20T06:47:00.392Z,14.20
2023-05-20T06:48:00.497Z,14.35
2023-05-20T06:49:00.313Z,14.36
2023-05-20T06:50:00.320Z,14.42
2023-05-20T06:51:00.280Z,14.42
2023-05-20T06:52:00.372Z,14.50
2023-05-20T06:53:00.318Z,14.52
2023-05-20T06:54:00.252Z,14.60
2023-05-20T06:55:00.276Z,14.60
2023-05-20T06:56:00.317Z,14.65
2023-05-20T06:57:00.229Z,14.77
2023-05-20T06:58:00.262Z,14.73
2023-05-20T06:59:00.211Z,14.73
2023-05-20T07:00:00.222Z,14.77
2023-05-20T07:01:00.240Z,14.92
2023-05-20T07:02:00.220Z,14.98
2023-05-20T07:03:00.390Z,15.01
2023-05-20T07:04:00.213Z,14.99
2023-05-20T07:05:00.162Z,14.83
2023-05-20T07:06:00.155Z,14.86
2023-05-20T07:07:00.104Z,15.01
2023-05-20T07:08:00.382Z,15.10
2023-05-20T07:09:00.118Z,15.11
2023-05-20T07:10:00.177Z,15.19
2023-05-20T07:11:00.081Z,15.19
2023-05-20T07:12:00.228Z,15.21
2023-05-20T07:13:00.052Z,15.09
2023-05-20T07:14:00.108Z,15.07
2023-05-20T07:15:00.047Z,15.03
2023-05-20T07:16:00.062Z,15.14
2023-05-20T07:16:59.994Z,15.06
2023-05-20T07:18:00.032Z,15.06
2023-05-20T07:19:00.035Z,15.10
2023-05-20T07:19:59.975Z,15.27
2023-05-20T07:20:59.961Z,15.28
2023-05-20T07:21:59.983Z,15.25
2023-05-20T07:22:59.934Z,15.27
2023-05-20T07:23:59.954Z,15.50
2023-05-20T07:24:59.910Z,15.57
2023-05-20T07:25:59.919Z,15.71
2023-05-20T07:26:59.915Z,15.71
2023-05-20T07:27:59.923Z,15.89
2023-05-20T07:28:59.862Z,15.96
2023-05-20T07:29:59.893Z,16.07
2023-05-20T07:30:59.869Z,16.24
2023-05-20T07:31:59.872Z,16.20
2023-05-20T07:32:59.848Z,16.23
2023-05-20T07:33:59.809Z,16.14
2023-05-20T07:34:59.811Z,16.23
2023-05-20T07:35:59.793Z,16.14
2023-05-20T07:36:59.774Z,16.25
2023-05-20T07:37:59.932Z,16.30
2023-05-20T07:39:03.650Z,16.31
2023-05-20T07:40:00.795Z,16.31
2023-05-20T07:40:59.792Z,16.27
2023-05-20T07:41:59.733Z,16.30
2023-05-20T07:42:59.749Z,16.23
2023-05-20T07:43:59.724Z,16.28
2023-05-20T07:44:59.696Z,16.31
2023-05-20T07:45:59.752Z,16.42
2023-05-20T07:46:59.778Z,16.39
2023-05-20T07:47:59.785Z,16.56
2023-05-20T07:48:59.736Z,16.57
2023-05-20T07:49:59.675Z,16.58
2023-05-20T07:50:59.624Z,16.57
2023-05-20T07:52:02.078Z,16.60
2023-05-20T07:52:59.625Z,16.67
2023-05-20T07:53:59.595Z,16.67
2023-05-20T07:54:59.632Z,16.63
2023-05-20T07:55:59.605Z,16.64
2023-05-20T07:56:59.590Z,16.68
2023-05-20T07:57:59.589Z,16.70
2023-05-20T07:58:59.693Z,16.88
2023-05-20T07:59:59.569Z,16.96
2023-05-20T08:00:59.527Z,16.89
2023-05-20T08:01:59.514Z,16.91
2023-05-20T08:02:59.702Z,16.93
2023-05-20T08:03:59.679Z,17.12
2023-05-20T08:04:59.485Z,17.15
2023-05-20T08:05:59.474Z,17.15
2023-05-20T08:06:59.523Z,17.16
2023-05-20T08:07:59.722Z,17.37
2023-05-20T08:08:59.527Z,17.52
2023-05-20T08:09:59.419Z,17.64
2023-05-20T08:10:59.453Z,17.71
2023-05-20T08:11:59.399Z,17.82
2023-05-20T08:12:59.386Z,17.81
2023-05-20T08:13:59.404Z,17.89
2023-05-20T08:14:59.369Z,18.07
2023-05-20T08:15:59.398Z,18.20
2023-05-20T08:16:59.392Z,17.93
2023-05-20T08:17:59.487Z,18.05
2023-05-20T08:18:59.432Z,18.15
2023-05-20T08:19:59.320Z,17.99
2023-05-20T08:20:59.316Z,18.02
2023-05-20T08:21:59.313Z,17.96
2023-05-20T08:22:59.288Z,18.14
2023-05-20T08:23:59.321Z,18.20
2023-05-20T08:24:59.271Z,18.42
2023-05-20T08:25:59.242Z,18.52
2023-05-20T08:26:59.257Z,18.57
2023-05-20T08:27:59.232Z,18.69
2023-05-20T08:28:59.227Z,18.80
2023-05-20T08:30:00.660Z,18.92
2023-05-20T08:30:59.246Z,19.08
2023-05-20T08:31:59.180Z,19.26
2023-05-20T08:32:59.250Z,19.41
2023-05-20T08:33:59.193Z,19.62
2023-05-20T08:34:59.177Z,19.84
2023-05-20T08:35:59.156Z,20.01
2023-05-20T08:36:59.121Z,20.16
2023-05-20T08:37:59.115Z,20.20
2023-05-20T08:38:59.181Z,20.18
2023-05-20T08:39:59.111Z,20.35
2023-05-20T08:40:59.080Z,20.61
2023-05-20T08:41:59.072Z,20.52
2023-05-20T08:42:59.188Z,20.52
2023-05-20T08:43:59.076Z,20.52
2023-05-20T08:44:59.039Z,20.58
2023-05-20T08:45:59.097Z,20.67
2023-05-20T08:46:59.245Z,20.59
2023-05-20T08:47:59.080Z,20.61
2023-05-20T08:48:59.019Z,20.74
2023-05-20T08:49:59.051Z,20.70
2023-05-20T08:50:59.002Z,20.64
2023-05-20T08:51:58.981Z,20.72
2023-05-20T08:52:58.991Z,20.64
2023-05-20T08:53:58.947Z,20.58
2023-05-20T08:54:58.950Z,20.73
2023-05-20T08:56:01.493Z,20.84
2023-05-20T08:56:58.917Z,20.87
2023-05-20T08:57:58.917Z,20.87
2023-05-20T08:58:58.923Z,20.73
2023-05-20T08:59:58.881Z,20.76
2023-05-20T09:00:59.016Z,20.57
2023-05-20T09:01:58.908Z,20.62
2023-05-20T09:03:00.895Z,20.55
2023-05-20T09:03:59.030Z,20.43
2023-05-20T09:04:58.888Z,20.31
2023-05-20T09:05:58.835Z,20.42
2023-05-20T09:06:58.821Z,20.41
2023-05-20T09:07:58.793Z,20.51
2023-05-20T09:08:58.786Z,20.61
2023-05-20T09:09:58.784Z,20.54
2023-05-20T09:10:58.800Z,20.51
2023-05-20T09:11:58.753Z,20.48
2023-05-20T09:12:58.742Z,20.42
2023-05-20T09:13:58.735Z,20.39
2023-05-20T09:14:58.723Z,20.48
2023-05-20T09:15:58.741Z,20.48
2023-05-20T09:16:58.751Z,20.51
2023-05-20T09:17:58.743Z,20.66
2023-05-20T09:18:58.726Z,20.67
2023-05-20T09:19:58.688Z,20.57
2023-05-20T09:20:58.675Z,20.62
2023-05-20T09:21:58.660Z,20.58
2023-05-20T09:22:58.674Z,20.54
2023-05-20T09:23:58.629Z,20.36
2023-05-20T09:24:58.621Z,20.35
2023-05-20T09:25:58.628Z,20.21
2023-05-20T09:26:58.601Z,20.16
2023-05-20T09:27:58.581Z,20.24
2023-05-20T09:28:58.630Z,20.13
2023-05-20T09:29:58.580Z,20.10
2023-05-20T09:30:58.556Z,20.11
2023-05-20T09:31:58.563Z,20.16
2023-05-20T09:32:58.569Z,20.23
2023-05-20T09:33:58.512Z,20.26
2023-05-20T09:34:58.553Z,20.29
2023-05-20T09:35:58.502Z,20.29
2023-05-20T09:36:58.490Z,20.21
2023-05-20T09:37:58.480Z,20.31
2023-05-20T09:38:58.513Z,20.28
2023-05-20T09:39:58.470Z,20.33
2023-05-20T09:40:58.465Z,20.21
2023-05-20T09:41:58.439Z,20.16
2023-05-20T09:42:58.422Z,20.13
2023-05-20T09:43:58.424Z,20.18
2023-05-20T09:44:58.401Z,20.14
2023-05-20T09:45:58.438Z,19.84
2023-05-20T09:46:58.420Z,19.86
2023-05-20T09:47:58.487Z,19.86
2023-05-20T09:48:58.390Z,19.86
2023-05-20T09:49:58.350Z,19.87
2023-05-20T09:50:58.359Z,19.86
2023-05-20T09:51:58.335Z,19.96
2023-05-20T09:52:58.324Z,20.10
2023-05-20T09:53:58.324Z,20.08
2023-05-20T09:54:58.313Z,20.14
2023-05-20T09:55:58.297Z,19.95
2023-05-20T09:56:58.296Z,19.96
2023-05-20T09:57:58.274Z,20.02
2023-05-20T09:58:58.262Z,19.80
2023-05-20T09:59:58.266Z,19.83
2023-05-20T10:00:58.267Z,19.91
2023-05-20T10:01:58.245Z,19.98
2023-05-20T10:02:58.281Z,19.96
2023-05-20T10:03:58.248Z,19.88
2023-05-20T10:04:58.193Z,20.01
2023-05-20T10:05:58.235Z,19.99
2023-05-20T10:06:58.170Z,19.92
2023-05-20T10:07:58.177Z,19.99
2023-05-20T10:08:58.213Z,20.14
2023-05-20T10:09:58.136Z,20.08
2023-05-20T10:10:58.150Z,20.28
2023-05-20T10:11:58.135Z,20.23
2023-05-20T10:12:58.152Z,20.28
2023-05-20T10:13:58.107Z,20.26
2023-05-20T10:14:58.094Z,20.29
2023-05-20T10:15:58.188Z,20.31
2023-05-20T10:16:58.073Z,20.36
2023-05-20T10:17:58.094Z,20.52
2023-05-20T10:18:58.081Z,20.57
2023-05-20T10:19:58.051Z,20.66
2023-05-20T10:20:58.037Z,20.82
2023-05-20T10:21:58.030Z,20.98
2023-05-20T10:22:58.075Z,21.01
2023-05-20T10:23:57.992Z,21.12
2023-05-20T10:24:57.977Z,21.32
2023-05-20T10:25:57.991Z,21.35
2023-05-20T10:26:57.981Z,21.54
2023-05-20T10:27:57.962Z,21.62
2023-05-20T10:28:57.939Z,21.65
2023-05-20T10:29:58.196Z,21.47
2023-05-20T10:30:57.921Z,21.34
2023-05-20T10:31:57.966Z,21.28
2023-05-20T10:32:58.110Z,21.16
2023-05-20T10:33:57.888Z,21.12
2023-05-20T10:34:57.873Z,21.13
2023-05-20T10:35:57.857Z,21.14
2023-05-20T10:36:57.869Z,21.19
2023-05-20T10:37:57.860Z,21.24
2023-05-20T10:38:57.847Z,21.17
2023-05-20T10:39:57.809Z,21.21
2023-05-20T10:40:57.804Z,21.06
2023-05-20T10:41:57.794Z,20.98
2023-05-20T10:42:57.931Z,21.04
2023-05-20T10:43:57.814Z,21.22
2023-05-20T10:44:57.763Z,21.27
2023-05-20T10:45:57.790Z,21.34
2023-05-20T10:47:20.445Z,21.34
2023-05-20T10:47:59.020Z,21.40
2023-05-20T10:48:57.909Z,21.53
2023-05-20T10:49:57.728Z,21.54
2023-05-20T10:50:57.765Z,21.84
2023-05-20T10:51:57.681Z,22.06
2023-05-20T10:52:57.687Z,22.27
2023-05-20T10:53:57.667Z,22.51
2023-05-20T10:54:57.672Z,22.67
2023-05-20T10:55:57.697Z,22.62
2023-05-20T10:56:57.648Z,22.57
2023-05-20T10:57:57.650Z,22.62
2023-05-20T10:58:57.638Z,22.80
2023-05-20T10:59:57.602Z,22.91
2023-05-20T11:00:57.647Z,22.49
2023-05-20T11:01:57.581Z,22.05
2023-05-20T11:02:57.756Z,21.98
2023-05-20T11:03:57.743Z,22.00
2023-05-20T11:04:57.552Z,22.25
2023-05-20T11:05:57.541Z,22.55
2023-05-20T11:06:57.567Z,22.73
2023-05-20T11:07:57.540Z,22.70
2023-05-20T11:08:57.530Z,22.51
2023-05-20T11:09:57.598Z,22.30
2023-05-20T11:10:57.496Z,22.27
2023-05-20T11:11:57.476Z,22.28
2023-05-20T11:12:57.504Z,22.06
2023-05-20T11:13:57.455Z,21.79
2023-05-20T11:14:57.483Z,21.75
2023-05-20T11:15:57.419Z,21.52
2023-05-20T11:16:57.463Z,21.44
2023-05-20T11:17:57.452Z,21.24
2023-05-20T11:18:57.423Z,21.14
2023-05-20T11:19:57.378Z,21.10
2023-05-20T11:20:57.389Z,21.29
2023-05-20T11:21:57.362Z,21.38
2023-05-20T11:22:57.376Z,21.47
2023-05-20T11:23:57.374Z,21.52
2023-05-20T11:24:57.329Z,21.52
2023-05-20T11:25:57.320Z,21.75
2023-05-20T11:26:57.320Z,21.83
2023-05-20T11:27:57.292Z,21.94
2023-05-20T11:28:58.729Z,22.09
2023-05-20T11:29:57.293Z,22.06
2023-05-20T11:30:57.293Z,22.09
2023-05-20T11:31:57.299Z,21.96
2023-05-20T11:32:57.290Z,21.84
2023-05-20T11:33:57.251Z,21.79
2023-05-20T11:34:57.301Z,21.52
2023-05-20T11:35:57.227Z,21.42
2023-05-20T11:36:57.227Z,21.47
2023-05-20T11:37:57.189Z,21.64
2023-05-20T11:38:57.181Z,21.75
2023-05-20T11:39:57.169Z,21.98
2023-05-20T11:40:57.553Z,22.02
2023-05-20T11:41:57.166Z,21.90
2023-05-20T11:42:57.154Z,21.94
2023-05-20T11:43:57.156Z,21.91
2023-05-20T11:44:57.815Z,21.74
2023-05-20T11:45:57.235Z,21.83
2023-05-20T11:46:57.108Z,21.59
2023-05-20T11:47:57.178Z,21.35
2023-05-20T11:48:57.158Z,21.25
2023-05-20T11:49:57.059Z,21.31
2023-05-20T11:50:57.069Z,21.31
2023-05-20T11:51:57.393Z,21.29
2023-05-20T11:52:57.031Z,21.37
2023-05-20T11:53:57.040Z,21.43
2023-05-20T11:54:57.006Z,21.56
2023-05-20T11:55:57.022Z,21.61
2023-05-20T11:56:57.028Z,21.68
2023-05-20T11:57:56.989Z,21.86
2023-05-20T11:58:56.984Z,21.96
2023-05-20T11:59:56.955Z,21.99
2023-05-20T12:01:02.376Z,21.99
2023-05-20T12:01:57.928Z,21.91
2023-05-20T12:02:57.046Z,22.02
2023-05-20T12:03:57.106Z,21.83
2023-05-20T12:05:56.892Z,21.59
2023-05-20T12:06:56.886Z,21.61
2023-05-20T12:07:56.869Z,21.50
2023-05-20T12:08:56.911Z,21.59
2023-05-20T12:09:56.854Z,21.67
2023-05-20T12:10:56.841Z,21.65
2023-05-20T12:11:56.841Z,21.62
2023-05-20T12:12:56.822Z,21.56
2023-05-20T12:13:56.804Z,21.29
2023-05-20T12:14:56.836Z,21.24
2023-05-20T12:15:56.855Z,21.17
2023-05-20T12:16:56.791Z,21.13
2023-05-20T12:17:56.791Z,21.16
2023-05-20T12:18:56.837Z,21.07
2023-05-20T12:19:56.741Z,21.10
2023-05-20T12:20:56.778Z,21.07
2023-05-20T12:21:56.720Z,21.07
2023-05-20T12:22:56.764Z,20.94
2023-05-20T12:23:56.695Z,20.77
2023-05-20T12:24:56.687Z,20.55
2023-05-20T12:25:56.673Z,20.55
2023-05-20T12:26:56.691Z,20.55
2023-05-20T12:27:56.671Z,20.62
2023-05-20T12:28:56.713Z,20.59
2023-05-20T12:29:56.636Z,20.70
2023-05-20T12:30:56.617Z,20.59
2023-05-20T12:31:56.668Z,20.64
2023-05-20T12:32:56.672Z,20.74
2023-05-20T12:33:56.586Z,20.62
2023-05-20T12:34:56.640Z,20.62
2023-05-20T12:35:56.562Z,20.64
2023-05-20T12:36:56.561Z,20.69
2023-05-20T12:37:56.550Z,20.59
2023-05-20T12:38:56.662Z,20.59
2023-05-20T12:39:56.523Z,20.55
2023-05-20T12:40:56.520Z,20.54
2023-05-20T12:41:56.499Z,20.58
2023-05-20T12:42:56.489Z,20.55
2023-05-20T12:43:56.475Z,20.52
2023-05-20T12:44:56.513Z,20.59
2023-05-20T12:45:56.449Z,20.51
2023-05-20T12:46:56.485Z,20.58
2023-05-20T12:47:56.541Z,20.66
2023-05-20T12:48:56.423Z,20.72
2023-05-20T12:49:56.411Z,20.77
2023-05-20T12:50:56.440Z,20.84
2023-05-20T12:51:56.388Z,20.79
2023-05-20T12:52:56.389Z,20.76